sensor_id;sensor_type;location;lat;lon;timestamp;P1;durP1;ratioP1;P2;durP2;ratioP2
6199;SDS011;3133;43.214;27.906;2023-04-15T00:01:44;8.33;;;3.80;;
6199;SDS011;3133;43.214;27.906;2023-04-15T00:04:11;5.50;;;3.70;;
6199;SDS011;3133;43.214;27.906;2023-04-15T00:06:38;14.40;;;3.67;;
6199;SDS011;3133;43.214;27.906;2023-04-15T00:09:05;5.57;;;4.23;;
6199;SDS011;3133;43.214;27.906;2023-04-15T00:11:32;8.13;;;4.10;;
6199;SDS011;3133;43.214;27.906;2023-04-15T00:13:59;8.00;;;3.60;;
6199;SDS011;3133;43.214;27.906;2023-04-15T00:16:28;5.37;;;3.47;;
6199;SDS011;3133;43.214;27.906;2023-04-15T00:18:54;7.67;;;3.43;;
6199;SDS011;3133;43.214;27.906;2023-04-15T00:21:21;8.33;;;4.07;;
6199;SDS011;3133;43.214;27.906;2023-04-15T00:23:48;7.17;;;4.70;;
6199;SDS011;3133;43.214;27.906;2023-04-15T00:26:17;9.87;;;4.50;;
6199;SDS011;3133;43.214;27.906;2023-04-15T00:28:44;17.17;;;5.07;;
6199;SDS011;3133;43.214;27.906;2023-04-15T00:31:11;6.23;;;4.10;;
6199;SDS011;3133;43.214;27.906;2023-04-15T00:33:40;6.77;;;4.20;;
6199;SDS011;3133;43.214;27.906;2023-04-15T00:36:07;5.43;;;4.33;;
6199;SDS011;3133;43.214;27.906;2023-04-15T00:38:36;10.53;;;5.07;;
6199;SDS011;3133;43.214;27.906;2023-04-15T00:41:04;7.73;;;4.23;;
6199;SDS011;3133;43.214;27.906;2023-04-15T00:43:30;4.87;;;3.90;;
6199;SDS011;3133;43.214;27.906;2023-04-15T00:45:57;6.07;;;4.57;;
6199;SDS011;3133;43.214;27.906;2023-04-15T00:48:27;8.13;;;4.60;;
6199;SDS011;3133;43.214;27.906;2023-04-15T00:50:55;7.73;;;4.40;;
6199;SDS011;3133;43.214;27.906;2023-04-15T00:53:22;6.43;;;4.00;;
6199;SDS011;3133;43.214;27.906;2023-04-15T00:55:49;9.20;;;4.37;;
6199;SDS011;3133;43.214;27.906;2023-04-15T00:58:16;8.77;;;4.53;;
6199;SDS011;3133;43.214;27.906;2023-04-15T01:00:43;5.17;;;4.13;;
6199;SDS011;3133;43.214;27.906;2023-04-15T01:03:11;8.87;;;3.80;;
6199;SDS011;3133;43.214;27.906;2023-04-15T01:05:39;4.83;;;3.60;;
6199;SDS011;3133;43.214;27.906;2023-04-15T01:08:07;13.63;;;4.40;;
6199;SDS011;3133;43.214;27.906;2023-04-15T01:10:34;9.90;;;4.50;;
6199;SDS011;3133;43.214;27.906;2023-04-15T01:13:02;12.57;;;5.80;;
6199;SDS011;3133;43.214;27.906;2023-04-15T01:15:29;5.90;;;3.60;;
6199;SDS011;3133;43.214;27.906;2023-04-15T01:17:56;6.80;;;3.77;;
6199;SDS011;3133;43.214;27.906;2023-04-15T01:20:24;10.70;;;3.97;;
6199;SDS011;3133;43.214;27.906;2023-04-15T01:22:51;6.17;;;3.87;;
6199;SDS011;3133;43.214;27.906;2023-04-15T01:25:26;8.93;;;3.60;;
6199;SDS011;3133;43.214;27.906;2023-04-15T01:27:57;6.83;;;4.20;;
6199;SDS011;3133;43.214;27.906;2023-04-15T01:30:24;11.57;;;4.80;;
6199;SDS011;3133;43.214;27.906;2023-04-15T01:32:51;5.50;;;4.23;;
6199;SDS011;3133;43.214;27.906;2023-04-15T01:35:18;7.73;;;4.30;;
6199;SDS011;3133;43.214;27.906;2023-04-15T01:37:45;9.10;;;4.20;;
6199;SDS011;3133;43.214;27.906;2023-04-15T01:40:12;6.60;;;4.03;;
6199;SDS011;3133;43.214;27.906;2023-04-15T01:42:40;5.63;;;3.93;;
6199;SDS011;3133;43.214;27.906;2023-04-15T01:45:08;9.23;;;4.33;;
6199;SDS011;3133;43.214;27.906;2023-04-15T01:47:35;9.03;;;4.40;;
6199;SDS011;3133;43.214;27.906;2023-04-15T01:50:02;7.00;;;4.27;;
6199;SDS011;3133;43.214;27.906;2023-04-15T01:52:29;4.90;;;4.10;;
6199;SDS011;3133;43.214;27.906;2023-04-15T01:54:56;10.97;;;4.43;;
6199;SDS011;3133;43.214;27.906;2023-04-15T01:57:23;6.70;;;4.37;;
6199;SDS011;3133;43.214;27.906;2023-04-15T01:59:51;12.20;;;4.23;;
6199;SDS011;3133;43.214;27.906;2023-04-15T02:02:18;12.50;;;5.00;;
6199;SDS011;3133;43.214;27.906;2023-04-15T02:04:45;6.73;;;4.60;;
6199;SDS011;3133;43.214;27.906;2023-04-15T02:07:12;9.67;;;4.00;;
6199;SDS011;3133;43.214;27.906;2023-04-15T02:09:39;11.83;;;4.00;;
6199;SDS011;3133;43.214;27.906;2023-04-15T02:12:06;5.57;;;3.60;;
6199;SDS011;3133;43.214;27.906;2023-04-15T02:14:33;7.27;;;4.10;;
6199;SDS011;3133;43.214;27.906;2023-04-15T02:17:01;12.67;;;4.33;;
6199;SDS011;3133;43.214;27.906;2023-04-15T02:19:31;5.27;;;4.20;;
6199;SDS011;3133;43.214;27.906;2023-04-15T02:21:58;7.27;;;4.33;;
6199;SDS011;3133;43.214;27.906;2023-04-15T02:24:26;8.57;;;4.57;;
6199;SDS011;3133;43.214;27.906;2023-04-15T02:26:53;15.20;;;4.83;;
6199;SDS011;3133;43.214;27.906;2023-04-15T02:29:20;7.00;;;4.37;;
6199;SDS011;3133;43.214;27.906;2023-04-15T02:31:47;15.23;;;5.30;;
6199;SDS011;3133;43.214;27.906;2023-04-15T02:34:15;13.53;;;6.27;;
6199;SDS011;3133;43.214;27.906;2023-04-15T02:36:43;14.03;;;5.67;;
6199;SDS011;3133;43.214;27.906;2023-04-15T02:39:11;14.17;;;5.77;;
6199;SDS011;3133;43.214;27.906;2023-04-15T02:41:40;14.87;;;7.03;;
6199;SDS011;3133;43.214;27.906;2023-04-15T02:44:08;16.63;;;7.10;;
6199;SDS011;3133;43.214;27.906;2023-04-15T02:46:37;11.13;;;6.90;;
6199;SDS011;3133;43.214;27.906;2023-04-15T02:49:05;15.07;;;7.97;;
6199;SDS011;3133;43.214;27.906;2023-04-15T02:51:34;14.93;;;8.50;;
6199;SDS011;3133;43.214;27.906;2023-04-15T02:54:01;14.67;;;7.73;;
6199;SDS011;3133;43.214;27.906;2023-04-15T02:56:27;13.67;;;7.10;;
6199;SDS011;3133;43.214;27.906;2023-04-15T02:58:55;13.43;;;6.57;;
6199;SDS011;3133;43.214;27.906;2023-04-15T03:01:22;11.10;;;5.23;;
6199;SDS011;3133;43.214;27.906;2023-04-15T03:03:50;8.70;;;5.13;;
6199;SDS011;3133;43.214;27.906;2023-04-15T03:06:17;11.97;;;4.53;;
6199;SDS011;3133;43.214;27.906;2023-04-15T03:08:45;9.53;;;4.50;;
6199;SDS011;3133;43.214;27.906;2023-04-15T03:11:12;9.90;;;4.83;;
6199;SDS011;3133;43.214;27.906;2023-04-15T03:13:40;8.80;;;4.47;;
6199;SDS011;3133;43.214;27.906;2023-04-15T03:16:07;8.37;;;4.20;;
6199;SDS011;3133;43.214;27.906;2023-04-15T03:18:34;14.17;;;4.90;;
6199;SDS011;3133;43.214;27.906;2023-04-15T03:21:02;10.60;;;4.33;;
6199;SDS011;3133;43.214;27.906;2023-04-15T03:23:29;8.40;;;4.67;;
6199;SDS011;3133;43.214;27.906;2023-04-15T03:26:00;5.70;;;3.83;;
6199;SDS011;3133;43.214;27.906;2023-04-15T03:28:30;8.23;;;3.97;;
6199;SDS011;3133;43.214;27.906;2023-04-15T03:30:57;8.80;;;3.70;;
6199;SDS011;3133;43.214;27.906;2023-04-15T03:33:24;16.77;;;4.50;;
6199;SDS011;3133;43.214;27.906;2023-04-15T03:35:51;7.93;;;3.50;;
6199;SDS011;3133;43.214;27.906;2023-04-15T03:38:18;9.73;;;4.33;;
6199;SDS011;3133;43.214;27.906;2023-04-15T03:40:45;9.67;;;4.53;;
6199;SDS011;3133;43.214;27.906;2023-04-15T03:43:14;10.87;;;4.10;;
6199;SDS011;3133;43.214;27.906;2023-04-15T03:45:41;8.90;;;4.20;;
6199;SDS011;3133;43.214;27.906;2023-04-15T03:48:08;9.00;;;4.40;;
6199;SDS011;3133;43.214;27.906;2023-04-15T03:50:35;8.80;;;3.93;;
6199;SDS011;3133;43.214;27.906;2023-04-15T03:53:01;13.53;;;4.70;;
6199;SDS011;3133;43.214;27.906;2023-04-15T03:55:28;9.17;;;4.10;;
6199;SDS011;3133;43.214;27.906;2023-04-15T03:57:55;7.40;;;4.00;;
6199;SDS011;3133;43.214;27.906;2023-04-15T04:00:23;5.63;;;3.33;;
6199;SDS011;3133;43.214;27.906;2023-04-15T04:02:50;6.40;;;3.37;;
6199;SDS011;3133;43.214;27.906;2023-04-15T04:05:17;7.00;;;3.53;;
6199;SDS011;3133;43.214;27.906;2023-04-15T04:07:44;5.83;;;3.50;;
6199;SDS011;3133;43.214;27.906;2023-04-15T04:10:11;8.53;;;3.90;;
6199;SDS011;3133;43.214;27.906;2023-04-15T04:12:39;7.17;;;3.77;;
6199;SDS011;3133;43.214;27.906;2023-04-15T04:15:07;11.03;;;3.63;;
6199;SDS011;3133;43.214;27.906;2023-04-15T04:17:35;8.77;;;3.90;;
6199;SDS011;3133;43.214;27.906;2023-04-15T04:20:02;6.80;;;3.70;;
6199;SDS011;3133;43.214;27.906;2023-04-15T04:22:30;4.43;;;3.20;;
6199;SDS011;3133;43.214;27.906;2023-04-15T04:24:57;12.47;;;3.40;;
6199;SDS011;3133;43.214;27.906;2023-04-15T04:27:24;10.13;;;3.40;;
6199;SDS011;3133;43.214;27.906;2023-04-15T04:29:51;8.03;;;3.60;;
6199;SDS011;3133;43.214;27.906;2023-04-15T04:32:18;6.17;;;3.70;;
6199;SDS011;3133;43.214;27.906;2023-04-15T04:34:46;6.70;;;3.77;;
6199;SDS011;3133;43.214;27.906;2023-04-15T04:37:13;11.47;;;3.73;;
6199;SDS011;3133;43.214;27.906;2023-04-15T04:39:40;12.93;;;4.00;;
6199;SDS011;3133;43.214;27.906;2023-04-15T04:42:07;4.97;;;3.47;;
6199;SDS011;3133;43.214;27.906;2023-04-15T04:44:34;8.63;;;3.93;;
6199;SDS011;3133;43.214;27.906;2023-04-15T04:47:01;9.87;;;4.23;;
6199;SDS011;3133;43.214;27.906;2023-04-15T04:49:28;6.93;;;3.50;;
6199;SDS011;3133;43.214;27.906;2023-04-15T04:51:56;6.57;;;3.60;;
6199;SDS011;3133;43.214;27.906;2023-04-15T04:54:23;7.83;;;4.03;;
6199;SDS011;3133;43.214;27.906;2023-04-15T04:56:50;8.00;;;4.17;;
6199;SDS011;3133;43.214;27.906;2023-04-15T04:59:17;9.73;;;4.10;;
6199;SDS011;3133;43.214;27.906;2023-04-15T05:01:44;9.33;;;4.57;;
6199;SDS011;3133;43.214;27.906;2023-04-15T05:04:10;9.80;;;4.10;;
6199;SDS011;3133;43.214;27.906;2023-04-15T05:06:37;5.93;;;3.70;;
6199;SDS011;3133;43.214;27.906;2023-04-15T05:09:05;15.63;;;4.20;;
6199;SDS011;3133;43.214;27.906;2023-04-15T05:11:32;7.30;;;4.17;;
6199;SDS011;3133;43.214;27.906;2023-04-15T05:13:59;7.73;;;4.63;;
6199;SDS011;3133;43.214;27.906;2023-04-15T05:16:26;5.87;;;4.00;;
6199;SDS011;3133;43.214;27.906;2023-04-15T05:18:53;9.27;;;4.83;;
6199;SDS011;3133;43.214;27.906;2023-04-15T05:21:20;12.33;;;4.10;;
6199;SDS011;3133;43.214;27.906;2023-04-15T05:23:47;14.87;;;4.70;;
6199;SDS011;3133;43.214;27.906;2023-04-15T05:26:16;13.43;;;4.40;;
6199;SDS011;3133;43.214;27.906;2023-04-15T05:28:43;12.40;;;4.37;;
6199;SDS011;3133;43.214;27.906;2023-04-15T05:31:10;9.20;;;4.27;;
6199;SDS011;3133;43.214;27.906;2023-04-15T05:33:37;8.43;;;4.37;;
6199;SDS011;3133;43.214;27.906;2023-04-15T05:36:04;5.17;;;3.70;;
6199;SDS011;3133;43.214;27.906;2023-04-15T05:38:32;13.43;;;4.23;;
6199;SDS011;3133;43.214;27.906;2023-04-15T05:40:59;13.40;;;4.97;;
6199;SDS011;3133;43.214;27.906;2023-04-15T05:43:27;6.03;;;4.17;;
6199;SDS011;3133;43.214;27.906;2023-04-15T05:45:54;16.57;;;4.47;;
6199;SDS011;3133;43.214;27.906;2023-04-15T05:48:21;13.13;;;4.17;;
6199;SDS011;3133;43.214;27.906;2023-04-15T05:50:48;7.37;;;4.20;;
6199;SDS011;3133;43.214;27.906;2023-04-15T05:53:16;8.97;;;5.10;;
6199;SDS011;3133;43.214;27.906;2023-04-15T05:55:42;8.20;;;4.40;;
6199;SDS011;3133;43.214;27.906;2023-04-15T05:58:09;7.67;;;4.63;;
6199;SDS011;3133;43.214;27.906;2023-04-15T06:00:38;7.33;;;4.67;;
6199;SDS011;3133;43.214;27.906;2023-04-15T06:03:05;14.50;;;5.33;;
6199;SDS011;3133;43.214;27.906;2023-04-15T06:05:32;20.20;;;5.53;;
6199;SDS011;3133;43.214;27.906;2023-04-15T06:07:59;14.87;;;5.80;;
6199;SDS011;3133;43.214;27.906;2023-04-15T06:10:26;9.07;;;5.87;;
6199;SDS011;3133;43.214;27.906;2023-04-15T06:12:53;13.30;;;7.73;;
6199;SDS011;3133;43.214;27.906;2023-04-15T06:15:20;16.30;;;11.87;;
6199;SDS011;3133;43.214;27.906;2023-04-15T06:17:49;24.57;;;13.40;;
6199;SDS011;3133;43.214;27.906;2023-04-15T06:20:16;22.20;;;13.00;;
6199;SDS011;3133;43.214;27.906;2023-04-15T06:22:43;25.83;;;15.03;;
6199;SDS011;3133;43.214;27.906;2023-04-15T06:25:10;24.83;;;15.70;;
6199;SDS011;3133;43.214;27.906;2023-04-15T06:27:37;26.23;;;15.47;;
6199;SDS011;3133;43.214;27.906;2023-04-15T06:30:06;27.57;;;15.97;;
6199;SDS011;3133;43.214;27.906;2023-04-15T06:32:34;24.13;;;16.47;;
6199;SDS011;3133;43.214;27.906;2023-04-15T06:35:02;26.13;;;15.67;;
6199;SDS011;3133;43.214;27.906;2023-04-15T06:37:30;24.17;;;14.80;;
6199;SDS011;3133;43.214;27.906;2023-04-15T06:39:57;22.47;;;15.27;;
6199;SDS011;3133;43.214;27.906;2023-04-15T06:42:24;16.90;;;12.70;;
6199;SDS011;3133;43.214;27.906;2023-04-15T06:44:51;22.37;;;11.23;;
6199;SDS011;3133;43.214;27.906;2023-04-15T06:47:18;19.90;;;11.60;;
6199;SDS011;3133;43.214;27.906;2023-04-15T06:49:45;21.50;;;11.43;;
6199;SDS011;3133;43.214;27.906;2023-04-15T06:52:14;14.43;;;10.43;;
6199;SDS011;3133;43.214;27.906;2023-04-15T06:54:41;16.03;;;10.10;;
6199;SDS011;3133;43.214;27.906;2023-04-15T06:57:08;21.40;;;9.63;;
6199;SDS011;3133;43.214;27.906;2023-04-15T06:59:35;15.37;;;9.10;;
6199;SDS011;3133;43.214;27.906;2023-04-15T07:02:02;14.50;;;9.30;;
6199;SDS011;3133;43.214;27.906;2023-04-15T07:04:29;18.07;;;9.00;;
6199;SDS011;3133;43.214;27.906;2023-04-15T07:06:56;14.90;;;8.80;;
6199;SDS011;3133;43.214;27.906;2023-04-15T07:09:29;19.13;;;9.53;;
6199;SDS011;3133;43.214;27.906;2023-04-15T07:11:56;14.57;;;7.83;;
6199;SDS011;3133;43.214;27.906;2023-04-15T07:14:23;20.47;;;8.30;;
6199;SDS011;3133;43.214;27.906;2023-04-15T07:16:50;10.67;;;7.10;;
6199;SDS011;3133;43.214;27.906;2023-04-15T07:19:17;12.10;;;7.10;;
6199;SDS011;3133;43.214;27.906;2023-04-15T07:21:46;10.97;;;6.93;;
6199;SDS011;3133;43.214;27.906;2023-04-15T07:24:13;8.80;;;6.97;;
6199;SDS011;3133;43.214;27.906;2023-04-15T07:26:43;10.40;;;6.83;;
6199;SDS011;3133;43.214;27.906;2023-04-15T07:29:10;12.70;;;6.77;;
6199;SDS011;3133;43.214;27.906;2023-04-15T07:31:39;15.60;;;5.87;;
6199;SDS011;3133;43.214;27.906;2023-04-15T07:34:06;10.77;;;5.70;;
6199;SDS011;3133;43.214;27.906;2023-04-15T07:36:33;9.30;;;6.37;;
6199;SDS011;3133;43.214;27.906;2023-04-15T07:39:01;11.13;;;6.57;;
6199;SDS011;3133;43.214;27.906;2023-04-15T07:41:28;10.20;;;5.90;;
6199;SDS011;3133;43.214;27.906;2023-04-15T07:43:58;23.33;;;10.20;;
6199;SDS011;3133;43.214;27.906;2023-04-15T07:46:25;25.87;;;13.97;;
6199;SDS011;3133;43.214;27.906;2023-04-15T07:48:52;72.23;;;46.23;;
6199;SDS011;3133;43.214;27.906;2023-04-15T07:51:19;11.37;;;7.00;;
6199;SDS011;3133;43.214;27.906;2023-04-15T07:53:46;29.90;;;16.77;;
6199;SDS011;3133;43.214;27.906;2023-04-15T07:56:14;15.40;;;8.73;;
6199;SDS011;3133;43.214;27.906;2023-04-15T07:58:41;11.87;;;7.97;;
6199;SDS011;3133;43.214;27.906;2023-04-15T08:01:10;11.40;;;8.00;;
6199;SDS011;3133;43.214;27.906;2023-04-15T08:03:38;11.77;;;6.67;;
6199;SDS011;3133;43.214;27.906;2023-04-15T08:06:05;12.70;;;8.83;;
6199;SDS011;3133;43.214;27.906;2023-04-15T08:08:32;11.20;;;6.50;;
6199;SDS011;3133;43.214;27.906;2023-04-15T08:10:59;28.73;;;18.87;;
6199;SDS011;3133;43.214;27.906;2023-04-15T08:13:26;66.40;;;45.63;;
6199;SDS011;3133;43.214;27.906;2023-04-15T08:18:42;15.93;;;11.30;;
6199;SDS011;3133;43.214;27.906;2023-04-15T08:21:10;7.23;;;6.03;;
6199;SDS011;3133;43.214;27.906;2023-04-15T08:23:37;19.37;;;13.40;;
6199;SDS011;3133;43.214;27.906;2023-04-15T08:26:04;10.83;;;7.40;;
6199;SDS011;3133;43.214;27.906;2023-04-15T08:28:32;7.77;;;5.53;;
6199;SDS011;3133;43.214;27.906;2023-04-15T08:31:00;14.53;;;6.57;;
6199;SDS011;3133;43.214;27.906;2023-04-15T08:33:29;10.93;;;5.57;;
6199;SDS011;3133;43.214;27.906;2023-04-15T08:35:56;8.30;;;4.63;;
6199;SDS011;3133;43.214;27.906;2023-04-15T08:38:23;9.17;;;5.00;;
6199;SDS011;3133;43.214;27.906;2023-04-15T08:40:50;8.13;;;4.60;;
6199;SDS011;3133;43.214;27.906;2023-04-15T08:43:21;5.13;;;4.10;;
6199;SDS011;3133;43.214;27.906;2023-04-15T08:45:51;4.83;;;3.60;;
6199;SDS011;3133;43.214;27.906;2023-04-15T08:48:18;11.57;;;4.23;;
6199;SDS011;3133;43.214;27.906;2023-04-15T08:50:52;8.67;;;4.47;;
6199;SDS011;3133;43.214;27.906;2023-04-15T08:53:21;5.20;;;3.87;;
6199;SDS011;3133;43.214;27.906;2023-04-15T08:55:52;5.10;;;3.33;;
6199;SDS011;3133;43.214;27.906;2023-04-15T08:58:23;9.27;;;4.40;;
6199;SDS011;3133;43.214;27.906;2023-04-15T09:00:50;5.20;;;3.70;;
6199;SDS011;3133;43.214;27.906;2023-04-15T09:03:18;4.50;;;3.60;;
6199;SDS011;3133;43.214;27.906;2023-04-15T09:05:50;4.83;;;3.83;;
6199;SDS011;3133;43.214;27.906;2023-04-15T09:08:17;8.70;;;4.13;;
6199;SDS011;3133;43.214;27.906;2023-04-15T09:10:44;9.47;;;4.77;;
6199;SDS011;3133;43.214;27.906;2023-04-15T09:13:11;5.70;;;4.33;;
6199;SDS011;3133;43.214;27.906;2023-04-15T09:15:39;6.40;;;3.70;;
6199;SDS011;3133;43.214;27.906;2023-04-15T09:18:07;4.00;;;3.20;;
6199;SDS011;3133;43.214;27.906;2023-04-15T09:20:37;3.97;;;3.47;;
6199;SDS011;3133;43.214;27.906;2023-04-15T09:23:12;3.83;;;3.37;;
6199;SDS011;3133;43.214;27.906;2023-04-15T09:25:41;5.93;;;3.77;;
6199;SDS011;3133;43.214;27.906;2023-04-15T09:28:08;6.13;;;3.60;;
6199;SDS011;3133;43.214;27.906;2023-04-15T09:30:36;5.17;;;3.00;;
6199;SDS011;3133;43.214;27.906;2023-04-15T09:33:03;5.13;;;3.23;;
6199;SDS011;3133;43.214;27.906;2023-04-15T09:35:32;3.00;;;2.70;;
6199;SDS011;3133;43.214;27.906;2023-04-15T09:38:01;4.87;;;3.07;;
6199;SDS011;3133;43.214;27.906;2023-04-15T09:40:31;7.27;;;3.13;;
6199;SDS011;3133;43.214;27.906;2023-04-15T09:43:00;3.40;;;2.80;;
6199;SDS011;3133;43.214;27.906;2023-04-15T09:45:27;8.20;;;2.73;;
6199;SDS011;3133;43.214;27.906;2023-04-15T09:47:55;7.70;;;3.50;;
6199;SDS011;3133;43.214;27.906;2023-04-15T09:50:26;3.70;;;3.03;;
6199;SDS011;3133;43.214;27.906;2023-04-15T09:52:56;5.73;;;3.23;;
6199;SDS011;3133;43.214;27.906;2023-04-15T09:55:23;3.17;;;2.70;;
6199;SDS011;3133;43.214;27.906;2023-04-15T09:57:52;6.07;;;2.97;;
6199;SDS011;3133;43.214;27.906;2023-04-15T10:00:19;18.73;;;3.70;;
6199;SDS011;3133;43.214;27.906;2023-04-15T10:02:48;4.63;;;2.30;;
6199;SDS011;3133;43.214;27.906;2023-04-15T10:05:16;10.80;;;3.27;;
6199;SDS011;3133;43.214;27.906;2023-04-15T10:07:44;3.80;;;2.43;;
6199;SDS011;3133;43.214;27.906;2023-04-15T10:10:12;6.97;;;2.57;;
6199;SDS011;3133;43.214;27.906;2023-04-15T10:12:40;2.47;;;2.23;;
6199;SDS011;3133;43.214;27.906;2023-04-15T10:15:12;3.40;;;2.80;;
6199;SDS011;3133;43.214;27.906;2023-04-15T10:17:42;5.13;;;2.57;;
6199;SDS011;3133;43.214;27.906;2023-04-15T10:20:10;3.93;;;2.47;;
6199;SDS011;3133;43.214;27.906;2023-04-15T10:22:39;3.97;;;2.87;;
6199;SDS011;3133;43.214;27.906;2023-04-15T10:25:07;7.27;;;2.90;;
6199;SDS011;3133;43.214;27.906;2023-04-15T10:27:35;5.90;;;2.50;;
6199;SDS011;3133;43.214;27.906;2023-04-15T10:30:05;6.73;;;2.90;;
6199;SDS011;3133;43.214;27.906;2023-04-15T10:32:35;9.17;;;2.70;;
6199;SDS011;3133;43.214;27.906;2023-04-15T10:35:03;6.77;;;2.40;;
6199;SDS011;3133;43.214;27.906;2023-04-15T10:37:34;11.47;;;3.30;;
6199;SDS011;3133;43.214;27.906;2023-04-15T10:42:53;3.37;;;2.33;;
6199;SDS011;3133;43.214;27.906;2023-04-15T10:45:20;5.67;;;2.87;;
6199;SDS011;3133;43.214;27.906;2023-04-15T10:47:53;2.57;;;2.37;;
6199;SDS011;3133;43.214;27.906;2023-04-15T10:50:21;3.20;;;2.83;;
6199;SDS011;3133;43.214;27.906;2023-04-15T10:52:49;3.87;;;2.80;;
6199;SDS011;3133;43.214;27.906;2023-04-15T10:55:18;5.67;;;2.60;;
6199;SDS011;3133;43.214;27.906;2023-04-15T10:57:46;5.80;;;2.73;;
6199;SDS011;3133;43.214;27.906;2023-04-15T11:00:18;6.00;;;2.87;;
6199;SDS011;3133;43.214;27.906;2023-04-15T11:02:48;3.73;;;2.50;;
6199;SDS011;3133;43.214;27.906;2023-04-15T11:05:20;5.53;;;2.50;;
6199;SDS011;3133;43.214;27.906;2023-04-15T11:07:52;6.43;;;2.47;;
6199;SDS011;3133;43.214;27.906;2023-04-15T11:13:22;11.77;;;2.67;;
6199;SDS011;3133;43.214;27.906;2023-04-15T11:15:54;10.27;;;2.90;;
6199;SDS011;3133;43.214;27.906;2023-04-15T11:18:32;4.30;;;2.43;;
6199;SDS011;3133;43.214;27.906;2023-04-15T11:21:00;2.63;;;2.03;;
6199;SDS011;3133;43.214;27.906;2023-04-15T11:23:33;3.30;;;1.83;;
6199;SDS011;3133;43.214;27.906;2023-04-15T11:26:01;5.63;;;2.30;;
6199;SDS011;3133;43.214;27.906;2023-04-15T11:28:33;12.63;;;2.77;;
6199;SDS011;3133;43.214;27.906;2023-04-15T11:31:10;4.33;;;2.20;;
6199;SDS011;3133;43.214;27.906;2023-04-15T11:34:01;6.90;;;2.20;;
6199;SDS011;3133;43.214;27.906;2023-04-15T11:36:29;8.07;;;2.50;;
6199;SDS011;3133;43.214;27.906;2023-04-15T11:38:58;5.53;;;2.77;;
6199;SDS011;3133;43.214;27.906;2023-04-15T11:41:25;4.27;;;2.60;;
6199;SDS011;3133;43.214;27.906;2023-04-15T11:43:52;2.40;;;2.20;;
6199;SDS011;3133;43.214;27.906;2023-04-15T11:46:20;5.77;;;2.40;;
6199;SDS011;3133;43.214;27.906;2023-04-15T11:48:47;6.43;;;2.73;;
6199;SDS011;3133;43.214;27.906;2023-04-15T11:51:16;5.70;;;2.20;;
6199;SDS011;3133;43.214;27.906;2023-04-15T11:53:45;5.33;;;2.90;;
6199;SDS011;3133;43.214;27.906;2023-04-15T11:56:16;2.57;;;2.33;;
6199;SDS011;3133;43.214;27.906;2023-04-15T11:58:45;3.20;;;2.47;;
6199;SDS011;3133;43.214;27.906;2023-04-15T12:01:14;6.53;;;2.43;;
6199;SDS011;3133;43.214;27.906;2023-04-15T12:03:41;3.43;;;2.30;;
6199;SDS011;3133;43.214;27.906;2023-04-15T12:06:11;8.17;;;2.70;;
6199;SDS011;3133;43.214;27.906;2023-04-15T12:08:55;2.43;;;2.23;;
6199;SDS011;3133;43.214;27.906;2023-04-15T12:11:27;15.33;;;2.47;;
6199;SDS011;3133;43.214;27.906;2023-04-15T12:13:56;3.17;;;2.33;;
6199;SDS011;3133;43.214;27.906;2023-04-15T12:16:26;3.63;;;2.40;;
6199;SDS011;3133;43.214;27.906;2023-04-15T12:18:55;3.73;;;2.13;;
6199;SDS011;3133;43.214;27.906;2023-04-15T12:21:27;3.77;;;2.10;;
6199;SDS011;3133;43.214;27.906;2023-04-15T12:24:00;2.47;;;2.00;;
6199;SDS011;3133;43.214;27.906;2023-04-15T12:26:31;3.57;;;2.23;;
6199;SDS011;3133;43.214;27.906;2023-04-15T12:29:00;2.10;;;1.83;;
6199;SDS011;3133;43.214;27.906;2023-04-15T12:31:27;16.10;;;2.40;;
6199;SDS011;3133;43.214;27.906;2023-04-15T12:33:54;2.60;;;2.03;;
6199;SDS011;3133;43.214;27.906;2023-04-15T12:36:22;4.27;;;2.30;;
6199;SDS011;3133;43.214;27.906;2023-04-15T12:38:49;2.90;;;1.90;;
6199;SDS011;3133;43.214;27.906;2023-04-15T12:41:19;3.17;;;2.00;;
6199;SDS011;3133;43.214;27.906;2023-04-15T12:43:48;3.33;;;2.10;;
6199;SDS011;3133;43.214;27.906;2023-04-15T12:46:16;7.10;;;2.20;;
6199;SDS011;3133;43.214;27.906;2023-04-15T12:48:44;2.83;;;1.77;;
6199;SDS011;3133;43.214;27.906;2023-04-15T12:51:11;8.27;;;2.10;;
6199;SDS011;3133;43.214;27.906;2023-04-15T12:53:39;2.30;;;2.10;;
6199;SDS011;3133;43.214;27.906;2023-04-15T12:56:06;4.73;;;2.43;;
6199;SDS011;3133;43.214;27.906;2023-04-15T12:58:34;4.73;;;2.77;;
6199;SDS011;3133;43.214;27.906;2023-04-15T13:01:01;4.47;;;2.10;;
6199;SDS011;3133;43.214;27.906;2023-04-15T13:03:28;4.00;;;1.97;;
6199;SDS011;3133;43.214;27.906;2023-04-15T13:05:55;1.90;;;1.80;;
6199;SDS011;3133;43.214;27.906;2023-04-15T13:08:22;1.87;;;1.60;;
6199;SDS011;3133;43.214;27.906;2023-04-15T13:10:49;3.07;;;2.00;;
6199;SDS011;3133;43.214;27.906;2023-04-15T13:13:16;2.50;;;1.80;;
6199;SDS011;3133;43.214;27.906;2023-04-15T13:15:45;4.53;;;2.33;;
6199;SDS011;3133;43.214;27.906;2023-04-15T13:18:12;2.03;;;1.80;;
6199;SDS011;3133;43.214;27.906;2023-04-15T13:20:39;3.83;;;2.03;;
6199;SDS011;3133;43.214;27.906;2023-04-15T13:23:07;2.10;;;1.90;;
6199;SDS011;3133;43.214;27.906;2023-04-15T13:25:36;2.27;;;1.73;;
6199;SDS011;3133;43.214;27.906;2023-04-15T13:28:03;4.87;;;2.17;;
6199;SDS011;3133;43.214;27.906;2023-04-15T13:30:33;9.20;;;2.00;;
6199;SDS011;3133;43.214;27.906;2023-04-15T13:33:01;2.23;;;2.00;;
6199;SDS011;3133;43.214;27.906;2023-04-15T13:35:28;1.90;;;1.77;;
6199;SDS011;3133;43.214;27.906;2023-04-15T13:37:55;4.50;;;2.27;;
6199;SDS011;3133;43.214;27.906;2023-04-15T13:40:22;4.00;;;2.13;;
6199;SDS011;3133;43.214;27.906;2023-04-15T13:42:49;4.80;;;2.20;;
6199;SDS011;3133;43.214;27.906;2023-04-15T13:45:19;2.70;;;2.00;;
6199;SDS011;3133;43.214;27.906;2023-04-15T13:47:46;4.03;;;2.07;;
6199;SDS011;3133;43.214;27.906;2023-04-15T13:50:15;2.63;;;1.93;;
6199;SDS011;3133;43.214;27.906;2023-04-15T13:52:44;6.30;;;2.33;;
6199;SDS011;3133;43.214;27.906;2023-04-15T13:55:11;6.97;;;2.30;;
6199;SDS011;3133;43.214;27.906;2023-04-15T13:57:38;3.27;;;2.00;;
6199;SDS011;3133;43.214;27.906;2023-04-15T14:00:07;6.90;;;2.40;;
6199;SDS011;3133;43.214;27.906;2023-04-15T14:02:34;3.60;;;2.43;;
6199;SDS011;3133;43.214;27.906;2023-04-15T14:05:01;4.10;;;2.10;;
6199;SDS011;3133;43.214;27.906;2023-04-15T14:07:31;7.30;;;2.10;;
6199;SDS011;3133;43.214;27.906;2023-04-15T14:09:58;2.37;;;1.97;;
6199;SDS011;3133;43.214;27.906;2023-04-15T14:12:26;3.23;;;2.00;;
6199;SDS011;3133;43.214;27.906;2023-04-15T14:14:53;3.57;;;2.43;;
6199;SDS011;3133;43.214;27.906;2023-04-15T14:17:20;3.30;;;2.27;;
6199;SDS011;3133;43.214;27.906;2023-04-15T14:19:48;5.40;;;2.70;;
6199;SDS011;3133;43.214;27.906;2023-04-15T14:22:17;2.90;;;2.03;;
6199;SDS011;3133;43.214;27.906;2023-04-15T14:24:51;3.13;;;2.23;;
6199;SDS011;3133;43.214;27.906;2023-04-15T14:27:19;7.57;;;2.50;;
6199;SDS011;3133;43.214;27.906;2023-04-15T14:29:47;3.23;;;1.97;;
6199;SDS011;3133;43.214;27.906;2023-04-15T14:32:14;4.67;;;2.67;;
6199;SDS011;3133;43.214;27.906;2023-04-15T14:34:41;4.03;;;2.20;;
6199;SDS011;3133;43.214;27.906;2023-04-15T14:37:08;3.23;;;2.20;;
6199;SDS011;3133;43.214;27.906;2023-04-15T14:39:35;4.70;;;2.40;;
6199;SDS011;3133;43.214;27.906;2023-04-15T14:42:04;5.00;;;2.30;;
6199;SDS011;3133;43.214;27.906;2023-04-15T14:44:31;3.93;;;2.50;;
6199;SDS011;3133;43.214;27.906;2023-04-15T14:46:58;5.93;;;2.70;;
6199;SDS011;3133;43.214;27.906;2023-04-15T14:49:25;3.47;;;2.50;;
6199;SDS011;3133;43.214;27.906;2023-04-15T14:51:52;4.30;;;2.70;;
6199;SDS011;3133;43.214;27.906;2023-04-15T14:54:19;6.03;;;3.00;;
6199;SDS011;3133;43.214;27.906;2023-04-15T14:56:46;9.13;;;3.10;;
6199;SDS011;3133;43.214;27.906;2023-04-15T14:59:14;5.17;;;3.17;;
6199;SDS011;3133;43.214;27.906;2023-04-15T15:01:41;10.73;;;3.67;;
6199;SDS011;3133;43.214;27.906;2023-04-15T15:04:09;14.50;;;4.07;;
6199;SDS011;3133;43.214;27.906;2023-04-15T15:06:36;4.67;;;3.47;;
6199;SDS011;3133;43.214;27.906;2023-04-15T15:09:03;7.20;;;3.43;;